sensor_id;sensor_type;location;lat;lon;timestamp;P1;durP1;ratioP1;P2;durP2;ratioP2
3949;SDS011;53057;50.988;6.314;2023-06-14T00:02:23;14.90;;;10.93;;
3949;SDS011;53057;50.988;6.314;2023-06-14T00:04:50;14.43;;;10.10;;
3949;SDS011;53057;50.988;6.314;2023-06-14T00:07:20;17.90;;;11.33;;
3949;SDS011;53057;50.988;6.314;2023-06-14T00:09:50;12.80;;;9.77;;
3949;SDS011;53057;50.988;6.314;2023-06-14T00:12:17;12.87;;;9.20;;
3949;SDS011;53057;50.988;6.314;2023-06-14T00:14:43;15.60;;;9.60;;
3949;SDS011;53057;50.988;6.314;2023-06-14T00:17:10;13.83;;;8.77;;
3949;SDS011;53057;50.988;6.314;2023-06-14T00:19:37;10.70;;;9.07;;
3949;SDS011;53057;50.988;6.314;2023-06-14T00:22:05;17.03;;;9.70;;
3949;SDS011;53057;50.988;6.314;2023-06-14T00:24:31;14.73;;;8.87;;
3949;SDS011;53057;50.988;6.314;2023-06-14T00:26:58;11.80;;;8.60;;
3949;SDS011;53057;50.988;6.314;2023-06-14T00:29:25;11.10;;;7.87;;
3949;SDS011;53057;50.988;6.314;2023-06-14T00:31:51;14.13;;;9.20;;
3949;SDS011;53057;50.988;6.314;2023-06-14T00:34:18;18.43;;;10.97;;
3949;SDS011;53057;50.988;6.314;2023-06-14T00:36:45;41.30;;;10.80;;
3949;SDS011;53057;50.988;6.314;2023-06-14T00:39:13;11.60;;;9.27;;
3949;SDS011;53057;50.988;6.314;2023-06-14T00:41:40;15.80;;;10.60;;
3949;SDS011;53057;50.988;6.314;2023-06-14T00:44:06;9.40;;;7.93;;
3949;SDS011;53057;50.988;6.314;2023-06-14T00:46:33;10.43;;;9.00;;
3949;SDS011;53057;50.988;6.314;2023-06-14T00:49:00;11.83;;;10.03;;
3949;SDS011;53057;50.988;6.314;2023-06-14T00:51:27;18.30;;;10.10;;
3949;SDS011;53057;50.988;6.314;2023-06-14T00:53:54;10.57;;;9.10;;
3949;SDS011;53057;50.988;6.314;2023-06-14T00:56:21;12.87;;;10.43;;
3949;SDS011;53057;50.988;6.314;2023-06-14T00:58:50;17.23;;;10.10;;
3949;SDS011;53057;50.988;6.314;2023-06-14T01:01:17;17.87;;;11.30;;
3949;SDS011;53057;50.988;6.314;2023-06-14T01:03:44;15.40;;;9.97;;
3949;SDS011;53057;50.988;6.314;2023-06-14T01:09:05;14.07;;;10.53;;
3949;SDS011;53057;50.988;6.314;2023-06-14T01:11:41;30.53;;;10.60;;
3949;SDS011;53057;50.988;6.314;2023-06-14T01:14:12;16.07;;;9.90;;
3949;SDS011;53057;50.988;6.314;2023-06-14T01:16:39;14.87;;;11.23;;
3949;SDS011;53057;50.988;6.314;2023-06-14T01:19:07;24.57;;;12.20;;
3949;SDS011;53057;50.988;6.314;2023-06-14T01:21:39;30.43;;;10.77;;
3949;SDS011;53057;50.988;6.314;2023-06-14T01:24:08;14.70;;;10.80;;
3949;SDS011;53057;50.988;6.314;2023-06-14T01:26:35;17.17;;;10.53;;
3949;SDS011;53057;50.988;6.314;2023-06-14T01:29:04;23.93;;;11.50;;
3949;SDS011;53057;50.988;6.314;2023-06-14T01:31:31;19.63;;;11.23;;
3949;SDS011;53057;50.988;6.314;2023-06-14T01:34:08;21.83;;;11.30;;
3949;SDS011;53057;50.988;6.314;2023-06-14T01:36:35;15.37;;;11.90;;
3949;SDS011;53057;50.988;6.314;2023-06-14T01:39:02;12.67;;;9.90;;
3949;SDS011;53057;50.988;6.314;2023-06-14T01:41:30;24.83;;;11.70;;
3949;SDS011;53057;50.988;6.314;2023-06-14T01:43:57;18.30;;;11.90;;
3949;SDS011;53057;50.988;6.314;2023-06-14T01:46:24;12.83;;;10.83;;
3949;SDS011;53057;50.988;6.314;2023-06-14T01:48:53;17.30;;;11.70;;
3949;SDS011;53057;50.988;6.314;2023-06-14T01:51:20;14.90;;;12.37;;
3949;SDS011;53057;50.988;6.314;2023-06-14T01:53:47;19.40;;;13.97;;
3949;SDS011;53057;50.988;6.314;2023-06-14T01:56:15;31.93;;;11.70;;
3949;SDS011;53057;50.988;6.314;2023-06-14T01:58:42;25.60;;;12.60;;
3949;SDS011;53057;50.988;6.314;2023-06-14T02:01:09;22.17;;;12.30;;
3949;SDS011;53057;50.988;6.314;2023-06-14T02:03:38;17.93;;;12.47;;
3949;SDS011;53057;50.988;6.314;2023-06-14T02:06:05;15.53;;;12.97;;
3949;SDS011;53057;50.988;6.314;2023-06-14T02:08:32;28.90;;;12.80;;
3949;SDS011;53057;50.988;6.314;2023-06-14T02:10:59;32.23;;;11.97;;
3949;SDS011;53057;50.988;6.314;2023-06-14T02:13:26;18.57;;;12.20;;
3949;SDS011;53057;50.988;6.314;2023-06-14T02:15:53;25.07;;;13.83;;
3949;SDS011;53057;50.988;6.314;2023-06-14T02:18:21;17.77;;;10.90;;
3949;SDS011;53057;50.988;6.314;2023-06-14T02:20:47;27.23;;;13.17;;
3949;SDS011;53057;50.988;6.314;2023-06-14T02:23:14;23.43;;;11.13;;
3949;SDS011;53057;50.988;6.314;2023-06-14T02:25:41;25.27;;;11.30;;
3949;SDS011;53057;50.988;6.314;2023-06-14T02:28:09;27.87;;;11.17;;
3949;SDS011;53057;50.988;6.314;2023-06-14T02:30:37;32.63;;;12.00;;
3949;SDS011;53057;50.988;6.314;2023-06-14T02:33:05;17.97;;;10.17;;
3949;SDS011;53057;50.988;6.314;2023-06-14T02:35:32;15.20;;;10.10;;
3949;SDS011;53057;50.988;6.314;2023-06-14T02:37:58;21.83;;;11.40;;
3949;SDS011;53057;50.988;6.314;2023-06-14T02:40:25;19.40;;;10.23;;
3949;SDS011;53057;50.988;6.314;2023-06-14T02:42:52;18.63;;;11.20;;
3949;SDS011;53057;50.988;6.314;2023-06-14T02:45:18;17.03;;;10.93;;
3949;SDS011;53057;50.988;6.314;2023-06-14T02:47:46;11.97;;;10.33;;
3949;SDS011;53057;50.988;6.314;2023-06-14T02:50:13;21.50;;;11.60;;
3949;SDS011;53057;50.988;6.314;2023-06-14T02:52:40;17.50;;;10.90;;
3949;SDS011;53057;50.988;6.314;2023-06-14T02:55:10;17.23;;;11.17;;
3949;SDS011;53057;50.988;6.314;2023-06-14T02:57:37;16.10;;;9.87;;
3949;SDS011;53057;50.988;6.314;2023-06-14T03:00:05;21.60;;;11.03;;
3949;SDS011;53057;50.988;6.314;2023-06-14T03:02:36;19.97;;;10.73;;
3949;SDS011;53057;50.988;6.314;2023-06-14T03:05:03;28.90;;;10.17;;
3949;SDS011;53057;50.988;6.314;2023-06-14T03:07:31;24.03;;;10.50;;
3949;SDS011;53057;50.988;6.314;2023-06-14T03:09:59;23.97;;;12.40;;
3949;SDS011;53057;50.988;6.314;2023-06-14T03:12:26;20.37;;;11.07;;
3949;SDS011;53057;50.988;6.314;2023-06-14T03:14:53;18.50;;;11.53;;
3949;SDS011;53057;50.988;6.314;2023-06-14T03:17:24;25.90;;;11.73;;
3949;SDS011;53057;50.988;6.314;2023-06-14T03:19:51;18.57;;;11.30;;
3949;SDS011;53057;50.988;6.314;2023-06-14T03:22:18;21.27;;;10.97;;
3949;SDS011;53057;50.988;6.314;2023-06-14T03:24:45;22.00;;;11.37;;
3949;SDS011;53057;50.988;6.314;2023-06-14T03:27:13;19.20;;;10.87;;
3949;SDS011;53057;50.988;6.314;2023-06-14T03:29:43;20.00;;;11.40;;
3949;SDS011;53057;50.988;6.314;2023-06-14T03:32:10;13.80;;;11.37;;
3949;SDS011;53057;50.988;6.314;2023-06-14T03:34:40;17.37;;;11.23;;
3949;SDS011;53057;50.988;6.314;2023-06-14T03:37:11;27.50;;;11.40;;
3949;SDS011;53057;50.988;6.314;2023-06-14T03:39:37;22.23;;;11.30;;
3949;SDS011;53057;50.988;6.314;2023-06-14T03:42:05;21.23;;;11.20;;
3949;SDS011;53057;50.988;6.314;2023-06-14T03:44:32;26.47;;;12.83;;
3949;SDS011;53057;50.988;6.314;2023-06-14T03:47:00;17.73;;;11.93;;
3949;SDS011;53057;50.988;6.314;2023-06-14T03:49:27;20.83;;;13.00;;
3949;SDS011;53057;50.988;6.314;2023-06-14T03:51:54;48.70;;;13.63;;
3949;SDS011;53057;50.988;6.314;2023-06-14T03:54:23;18.77;;;11.50;;
3949;SDS011;53057;50.988;6.314;2023-06-14T03:56:54;19.87;;;11.73;;
3949;SDS011;53057;50.988;6.314;2023-06-14T03:59:20;31.93;;;12.90;;
3949;SDS011;53057;50.988;6.314;2023-06-14T04:01:47;18.60;;;11.43;;
3949;SDS011;53057;50.988;6.314;2023-06-14T04:04:15;18.00;;;11.17;;
3949;SDS011;53057;50.988;6.314;2023-06-14T04:06:45;20.47;;;12.47;;
3949;SDS011;53057;50.988;6.314;2023-06-14T04:09:15;21.40;;;12.87;;
3949;SDS011;53057;50.988;6.314;2023-06-14T04:11:41;23.77;;;13.67;;
3949;SDS011;53057;50.988;6.314;2023-06-14T04:14:08;16.70;;;12.50;;
3949;SDS011;53057;50.988;6.314;2023-06-14T04:16:34;19.43;;;13.27;;
3949;SDS011;53057;50.988;6.314;2023-06-14T04:19:01;19.27;;;13.17;;
3949;SDS011;53057;50.988;6.314;2023-06-14T04:21:28;20.90;;;12.80;;
3949;SDS011;53057;50.988;6.314;2023-06-14T04:23:57;19.50;;;12.47;;
3949;SDS011;53057;50.988;6.314;2023-06-14T04:26:27;19.50;;;12.30;;
3949;SDS011;53057;50.988;6.314;2023-06-14T04:28:57;19.60;;;12.20;;
3949;SDS011;53057;50.988;6.314;2023-06-14T04:31:29;23.20;;;12.43;;
3949;SDS011;53057;50.988;6.314;2023-06-14T04:34:01;20.20;;;11.70;;
3949;SDS011;53057;50.988;6.314;2023-06-14T04:36:27;25.00;;;11.97;;
3949;SDS011;53057;50.988;6.314;2023-06-14T04:38:54;24.37;;;13.03;;
3949;SDS011;53057;50.988;6.314;2023-06-14T04:41:24;28.03;;;12.50;;
3949;SDS011;53057;50.988;6.314;2023-06-14T04:43:55;21.37;;;12.63;;
3949;SDS011;53057;50.988;6.314;2023-06-14T04:46:23;31.17;;;14.73;;
3949;SDS011;53057;50.988;6.314;2023-06-14T04:48:50;20.87;;;13.53;;
3949;SDS011;53057;50.988;6.314;2023-06-14T04:51:17;30.37;;;14.20;;
3949;SDS011;53057;50.988;6.314;2023-06-14T04:53:47;24.23;;;12.40;;
3949;SDS011;53057;50.988;6.314;2023-06-14T04:56:16;29.33;;;15.77;;
3949;SDS011;53057;50.988;6.314;2023-06-14T04:58:43;21.63;;;13.87;;
3949;SDS011;53057;50.988;6.314;2023-06-14T05:01:10;23.83;;;11.60;;
3949;SDS011;53057;50.988;6.314;2023-06-14T05:03:37;22.63;;;11.47;;
3949;SDS011;53057;50.988;6.314;2023-06-14T05:06:04;19.30;;;11.70;;
3949;SDS011;53057;50.988;6.314;2023-06-14T05:08:31;19.73;;;10.43;;
3949;SDS011;53057;50.988;6.314;2023-06-14T05:10:57;17.47;;;12.53;;
3949;SDS011;53057;50.988;6.314;2023-06-14T05:13:24;23.47;;;11.03;;
3949;SDS011;53057;50.988;6.314;2023-06-14T05:15:50;29.53;;;13.23;;
3949;SDS011;53057;50.988;6.314;2023-06-14T05:18:17;18.43;;;10.67;;
3949;SDS011;53057;50.988;6.314;2023-06-14T05:20:44;15.03;;;10.43;;
3949;SDS011;53057;50.988;6.314;2023-06-14T05:23:10;41.20;;;9.37;;
3949;SDS011;53057;50.988;6.314;2023-06-14T05:25:42;14.70;;;8.43;;
3949;SDS011;53057;50.988;6.314;2023-06-14T05:28:09;15.00;;;7.67;;
3949;SDS011;53057;50.988;6.314;2023-06-14T05:30:37;19.50;;;8.80;;
3949;SDS011;53057;50.988;6.314;2023-06-14T05:33:04;21.73;;;8.10;;
3949;SDS011;53057;50.988;6.314;2023-06-14T05:35:31;18.07;;;7.43;;
3949;SDS011;53057;50.988;6.314;2023-06-14T05:37:57;13.40;;;7.57;;
3949;SDS011;53057;50.988;6.314;2023-06-14T05:40:24;13.07;;;7.60;;
3949;SDS011;53057;50.988;6.314;2023-06-14T05:42:50;12.53;;;7.23;;
3949;SDS011;53057;50.988;6.314;2023-06-14T05:45:17;20.43;;;9.03;;
3949;SDS011;53057;50.988;6.314;2023-06-14T05:47:44;22.90;;;9.00;;
3949;SDS011;53057;50.988;6.314;2023-06-14T05:50:11;22.33;;;9.77;;
3949;SDS011;53057;50.988;6.314;2023-06-14T05:52:37;24.80;;;9.13;;
3949;SDS011;53057;50.988;6.314;2023-06-14T05:55:04;26.57;;;9.37;;
3949;SDS011;53057;50.988;6.314;2023-06-14T05:57:31;22.43;;;9.07;;
3949;SDS011;53057;50.988;6.314;2023-06-14T05:59:58;24.87;;;9.70;;
3949;SDS011;53057;50.988;6.314;2023-06-14T06:02:25;15.93;;;8.70;;
3949;SDS011;53057;50.988;6.314;2023-06-14T06:04:55;17.30;;;8.53;;
3949;SDS011;53057;50.988;6.314;2023-06-14T06:07:22;19.90;;;8.20;;
3949;SDS011;53057;50.988;6.314;2023-06-14T06:09:49;16.77;;;8.33;;
3949;SDS011;53057;50.988;6.314;2023-06-14T06:12:15;19.23;;;8.87;;
3949;SDS011;53057;50.988;6.314;2023-06-14T06:14:42;14.90;;;7.40;;
3949;SDS011;53057;50.988;6.314;2023-06-14T06:17:09;10.63;;;7.23;;
3949;SDS011;53057;50.988;6.314;2023-06-14T06:19:36;16.30;;;7.90;;
3949;SDS011;53057;50.988;6.314;2023-06-14T06:22:02;10.83;;;6.70;;
3949;SDS011;53057;50.988;6.314;2023-06-14T06:24:32;6.83;;;5.63;;
3949;SDS011;53057;50.988;6.314;2023-06-14T06:26:59;14.80;;;6.13;;
3949;SDS011;53057;50.988;6.314;2023-06-14T06:29:26;7.13;;;5.97;;
3949;SDS011;53057;50.988;6.314;2023-06-14T06:31:53;12.90;;;6.67;;
3949;SDS011;53057;50.988;6.314;2023-06-14T06:34:20;16.17;;;6.57;;
3949;SDS011;53057;50.988;6.314;2023-06-14T06:36:46;9.80;;;6.50;;
3949;SDS011;53057;50.988;6.314;2023-06-14T06:39:13;8.47;;;5.93;;
3949;SDS011;53057;50.988;6.314;2023-06-14T06:41:41;7.83;;;5.70;;
3949;SDS011;53057;50.988;6.314;2023-06-14T06:44:07;11.97;;;5.40;;
3949;SDS011;53057;50.988;6.314;2023-06-14T06:46:38;8.70;;;5.57;;
3949;SDS011;53057;50.988;6.314;2023-06-14T06:49:07;20.33;;;5.70;;
3949;SDS011;53057;50.988;6.314;2023-06-14T06:51:35;9.60;;;5.27;;
3949;SDS011;53057;50.988;6.314;2023-06-14T06:54:01;7.00;;;5.10;;
3949;SDS011;53057;50.988;6.314;2023-06-14T06:56:28;4.83;;;4.17;;
3949;SDS011;53057;50.988;6.314;2023-06-14T06:58:55;13.20;;;5.00;;
3949;SDS011;53057;50.988;6.314;2023-06-14T07:01:21;11.27;;;5.60;;
3949;SDS011;53057;50.988;6.314;2023-06-14T07:03:48;8.00;;;4.63;;
3949;SDS011;53057;50.988;6.314;2023-06-14T07:06:14;4.50;;;4.10;;
3949;SDS011;53057;50.988;6.314;2023-06-14T07:08:43;6.63;;;5.00;;
3949;SDS011;53057;50.988;6.314;2023-06-14T07:11:10;6.17;;;5.57;;
3949;SDS011;53057;50.988;6.314;2023-06-14T07:13:37;7.83;;;4.77;;
3949;SDS011;53057;50.988;6.314;2023-06-14T07:16:04;5.30;;;4.00;;
3949;SDS011;53057;50.988;6.314;2023-06-14T07:18:31;8.30;;;4.87;;
3949;SDS011;53057;50.988;6.314;2023-06-14T07:20:57;11.20;;;5.80;;
3949;SDS011;53057;50.988;6.314;2023-06-14T07:23:24;6.77;;;5.03;;
3949;SDS011;53057;50.988;6.314;2023-06-14T07:25:51;6.33;;;4.90;;
3949;SDS011;53057;50.988;6.314;2023-06-14T07:28:18;8.60;;;5.30;;
3949;SDS011;53057;50.988;6.314;2023-06-14T07:30:45;7.03;;;4.30;;
3949;SDS011;53057;50.988;6.314;2023-06-14T07:33:11;8.43;;;4.67;;
3949;SDS011;53057;50.988;6.314;2023-06-14T07:35:39;8.53;;;4.70;;
3949;SDS011;53057;50.988;6.314;2023-06-14T07:38:08;8.80;;;4.10;;
3949;SDS011;53057;50.988;6.314;2023-06-14T07:40:34;5.90;;;5.30;;
3949;SDS011;53057;50.988;6.314;2023-06-14T07:43:01;10.23;;;4.33;;
3949;SDS011;53057;50.988;6.314;2023-06-14T07:45:28;8.00;;;4.77;;
3949;SDS011;53057;50.988;6.314;2023-06-14T07:47:55;6.87;;;5.00;;
3949;SDS011;53057;50.988;6.314;2023-06-14T07:50:24;5.93;;;3.90;;
3949;SDS011;53057;50.988;6.314;2023-06-14T07:52:51;5.63;;;3.00;;
3949;SDS011;53057;50.988;6.314;2023-06-14T07:55:18;6.70;;;4.00;;
3949;SDS011;53057;50.988;6.314;2023-06-14T07:57:45;5.37;;;3.80;;
3949;SDS011;53057;50.988;6.314;2023-06-14T08:00:12;7.13;;;4.60;;
3949;SDS011;53057;50.988;6.314;2023-06-14T08:02:42;4.70;;;4.27;;
3949;SDS011;53057;50.988;6.314;2023-06-14T08:05:10;3.40;;;3.10;;
3949;SDS011;53057;50.988;6.314;2023-06-14T08:07:37;9.07;;;4.70;;
3949;SDS011;53057;50.988;6.314;2023-06-14T08:10:04;5.27;;;4.60;;
3949;SDS011;53057;50.988;6.314;2023-06-14T08:12:31;8.40;;;4.37;;
3949;SDS011;53057;50.988;6.314;2023-06-14T08:14:58;5.93;;;3.00;;
3949;SDS011;53057;50.988;6.314;2023-06-14T08:17:39;5.80;;;4.57;;
3949;SDS011;53057;50.988;6.314;2023-06-14T08:20:06;10.50;;;3.93;;
3949;SDS011;53057;50.988;6.314;2023-06-14T08:22:34;5.00;;;3.47;;
3949;SDS011;53057;50.988;6.314;2023-06-14T08:27:55;6.70;;;4.10;;
3949;SDS011;53057;50.988;6.314;2023-06-14T08:30:21;5.40;;;3.57;;
3949;SDS011;53057;50.988;6.314;2023-06-14T08:32:48;4.43;;;3.50;;
3949;SDS011;53057;50.988;6.314;2023-06-14T08:35:28;5.97;;;3.67;;
3949;SDS011;53057;50.988;6.314;2023-06-14T08:37:55;3.80;;;2.90;;
3949;SDS011;53057;50.988;6.314;2023-06-14T08:40:22;3.20;;;2.90;;
3949;SDS011;53057;50.988;6.314;2023-06-14T08:42:50;5.07;;;2.93;;
3949;SDS011;53057;50.988;6.314;2023-06-14T08:45:22;4.30;;;3.60;;
3949;SDS011;53057;50.988;6.314;2023-06-14T08:47:54;5.60;;;2.80;;
3949;SDS011;53057;50.988;6.314;2023-06-14T08:50:25;3.40;;;3.10;;
3949;SDS011;53057;50.988;6.314;2023-06-14T08:53:01;6.13;;;3.30;;
3949;SDS011;53057;50.988;6.314;2023-06-14T08:55:30;2.70;;;2.50;;
3949;SDS011;53057;50.988;6.314;2023-06-14T08:58:02;3.80;;;2.67;;
3949;SDS011;53057;50.988;6.314;2023-06-14T09:00:30;4.87;;;2.80;;
3949;SDS011;53057;50.988;6.314;2023-06-14T09:02:59;4.50;;;3.10;;
3949;SDS011;53057;50.988;6.314;2023-06-14T09:05:26;4.50;;;3.30;;
3949;SDS011;53057;50.988;6.314;2023-06-14T09:07:53;2.73;;;2.53;;
3949;SDS011;53057;50.988;6.314;2023-06-14T09:10:21;2.57;;;2.37;;
3949;SDS011;53057;50.988;6.314;2023-06-14T09:12:48;2.37;;;2.17;;
3949;SDS011;53057;50.988;6.314;2023-06-14T09:15:15;2.77;;;2.53;;
3949;SDS011;53057;50.988;6.314;2023-06-14T09:17:42;4.67;;;2.10;;
3949;SDS011;53057;50.988;6.314;2023-06-14T09:20:09;6.77;;;2.83;;
3949;SDS011;53057;50.988;6.314;2023-06-14T09:22:46;3.57;;;2.10;;
3949;SDS011;53057;50.988;6.314;2023-06-14T09:25:13;8.23;;;1.73;;
3949;SDS011;53057;50.988;6.314;2023-06-14T09:27:59;2.97;;;1.80;;
3949;SDS011;53057;50.988;6.314;2023-06-14T09:30:25;2.90;;;1.70;;
3949;SDS011;53057;50.988;6.314;2023-06-14T09:32:52;2.07;;;1.57;;
3949;SDS011;53057;50.988;6.314;2023-06-14T09:35:20;9.43;;;2.20;;
3949;SDS011;53057;50.988;6.314;2023-06-14T09:37:47;7.83;;;1.57;;
3949;SDS011;53057;50.988;6.314;2023-06-14T09:40:13;2.30;;;1.30;;
3949;SDS011;53057;50.988;6.314;2023-06-14T09:42:46;2.10;;;1.33;;
3949;SDS011;53057;50.988;6.314;2023-06-14T09:45:13;1.80;;;1.70;;
3949;SDS011;53057;50.988;6.314;2023-06-14T09:47:41;2.60;;;1.70;;
3949;SDS011;53057;50.988;6.314;2023-06-14T09:50:28;3.50;;;2.10;;
3949;SDS011;53057;50.988;6.314;2023-06-14T09:52:56;2.00;;;1.77;;
3949;SDS011;53057;50.988;6.314;2023-06-14T09:55:26;3.93;;;1.80;;
3949;SDS011;53057;50.988;6.314;2023-06-14T09:57:53;2.30;;;2.10;;
3949;SDS011;53057;50.988;6.314;2023-06-14T10:00:21;2.83;;;1.60;;
3949;SDS011;53057;50.988;6.314;2023-06-14T10:02:48;4.97;;;2.30;;
3949;SDS011;53057;50.988;6.314;2023-06-14T10:05:17;2.63;;;1.80;;
3949;SDS011;53057;50.988;6.314;2023-06-14T10:07:44;2.53;;;1.70;;
3949;SDS011;53057;50.988;6.314;2023-06-14T10:10:14;3.63;;;1.40;;
3949;SDS011;53057;50.988;6.314;2023-06-14T10:12:41;4.33;;;2.00;;
3949;SDS011;53057;50.988;6.314;2023-06-14T10:15:09;4.40;;;1.80;;
3949;SDS011;53057;50.988;6.314;2023-06-14T10:17:54;3.03;;;2.00;;
3949;SDS011;53057;50.988;6.314;2023-06-14T10:20:28;5.17;;;2.07;;
3949;SDS011;53057;50.988;6.314;2023-06-14T10:23:02;1.93;;;1.50;;
3949;SDS011;53057;50.988;6.314;2023-06-14T10:25:30;1.73;;;1.60;;
3949;SDS011;53057;50.988;6.314;2023-06-14T10:30:30;4.03;;;1.63;;
3949;SDS011;53057;50.988;6.314;2023-06-14T10:33:07;3.90;;;2.50;;
3949;SDS011;53057;50.988;6.314;2023-06-14T10:35:34;4.10;;;2.07;;
3949;SDS011;53057;50.988;6.314;2023-06-14T10:38:11;2.47;;;2.10;;
3949;SDS011;53057;50.988;6.314;2023-06-14T10:40:38;4.13;;;1.60;;
3949;SDS011;53057;50.988;6.314;2023-06-14T10:43:22;7.33;;;2.60;;
3949;SDS011;53057;50.988;6.314;2023-06-14T10:48:38;6.27;;;1.63;;
3949;SDS011;53057;50.988;6.314;2023-06-14T10:51:06;1.80;;;1.53;;
3949;SDS011;53057;50.988;6.314;2023-06-14T10:53:40;6.83;;;2.20;;
3949;SDS011;53057;50.988;6.314;2023-06-14T10:56:07;8.37;;;2.03;;
3949;SDS011;53057;50.988;6.314;2023-06-14T10:58:33;4.17;;;1.60;;
3949;SDS011;53057;50.988;6.314;2023-06-14T11:01:00;4.30;;;1.93;;
3949;SDS011;53057;50.988;6.314;2023-06-14T11:03:43;4.70;;;2.00;;
3949;SDS011;53057;50.988;6.314;2023-06-14T11:06:16;8.43;;;1.80;;
3949;SDS011;53057;50.988;6.314;2023-06-14T11:08:53;3.03;;;2.03;;
3949;SDS011;53057;50.988;6.314;2023-06-14T11:11:24;3.77;;;2.03;;
3949;SDS011;53057;50.988;6.314;2023-06-14T11:13:56;10.40;;;2.30;;
3949;SDS011;53057;50.988;6.314;2023-06-14T11:16:22;4.30;;;1.27;;
3949;SDS011;53057;50.988;6.314;2023-06-14T11:18:52;3.30;;;2.03;;
3949;SDS011;53057;50.988;6.314;2023-06-14T11:21:19;3.57;;;1.87;;
3949;SDS011;53057;50.988;6.314;2023-06-14T11:23:49;12.97;;;2.00;;
3949;SDS011;53057;50.988;6.314;2023-06-14T11:26:23;3.83;;;2.13;;
3949;SDS011;53057;50.988;6.314;2023-06-14T11:28:51;2.93;;;1.53;;
3949;SDS011;53057;50.988;6.314;2023-06-14T11:31:22;2.97;;;1.43;;
3949;SDS011;53057;50.988;6.314;2023-06-14T11:33:55;3.03;;;1.83;;
3949;SDS011;53057;50.988;6.314;2023-06-14T11:36:23;3.30;;;1.60;;
3949;SDS011;53057;50.988;6.314;2023-06-14T11:39:00;2.70;;;1.80;;
3949;SDS011;53057;50.988;6.314;2023-06-14T11:41:32;5.33;;;1.80;;
3949;SDS011;53057;50.988;6.314;2023-06-14T11:43:59;1.73;;;1.60;;
3949;SDS011;53057;50.988;6.314;2023-06-14T11:46:26;6.33;;;1.97;;
3949;SDS011;53057;50.988;6.314;2023-06-14T11:48:53;4.60;;;2.00;;
3949;SDS011;53057;50.988;6.314;2023-06-14T11:51:19;5.23;;;2.20;;
3949;SDS011;53057;50.988;6.314;2023-06-14T11:53:47;2.80;;;1.87;;
3949;SDS011;53057;50.988;6.314;2023-06-14T11:56:13;2.30;;;1.50;;
3949;SDS011;53057;50.988;6.314;2023-06-14T11:58:43;5.37;;;2.43;;
3949;SDS011;53057;50.988;6.314;2023-06-14T12:01:14;8.43;;;2.20;;
3949;SDS011;53057;50.988;6.314;2023-06-14T12:03:47;6.47;;;1.77;;
3949;SDS011;53057;50.988;6.314;2023-06-14T12:06:15;6.00;;;1.80;;
3949;SDS011;53057;50.988;6.314;2023-06-14T12:08:42;3.30;;;1.40;;
3949;SDS011;53057;50.988;6.314;2023-06-14T12:11:12;3.70;;;2.60;;
3949;SDS011;53057;50.988;6.314;2023-06-14T12:13:40;24.13;;;2.40;;
3949;SDS011;53057;50.988;6.314;2023-06-14T12:16:11;3.20;;;1.90;;
3949;SDS011;53057;50.988;6.314;2023-06-14T12:18:39;3.00;;;1.80;;
3949;SDS011;53057;50.988;6.314;2023-06-14T12:21:06;2.10;;;1.67;;
3949;SDS011;53057;50.988;6.314;2023-06-14T12:26:16;4.03;;;1.77;;
3949;SDS011;53057;50.988;6.314;2023-06-14T12:28:46;3.80;;;1.50;;
3949;SDS011;53057;50.988;6.314;2023-06-14T12:31:14;1.80;;;1.70;;
3949;SDS011;53057;50.988;6.314;2023-06-14T12:33:40;6.37;;;1.80;;
3949;SDS011;53057;50.988;6.314;2023-06-14T12:36:08;6.50;;;2.07;;
3949;SDS011;53057;50.988;6.314;2023-06-14T12:38:35;3.13;;;2.10;;
3949;SDS011;53057;50.988;6.314;2023-06-14T12:41:02;4.23;;;1.80;;
3949;SDS011;53057;50.988;6.314;2023-06-14T12:43:29;3.07;;;1.83;;
3949;SDS011;53057;50.988;6.314;2023-06-14T12:45:55;3.50;;;1.90;;
3949;SDS011;53057;50.988;6.314;2023-06-14T12:48:22;2.60;;;2.30;;
3949;SDS011;53057;50.988;6.314;2023-06-14T12:50:48;1.67;;;1.57;;
3949;SDS011;53057;50.988;6.314;2023-06-14T12:53:15;4.47;;;1.50;;
3949;SDS011;53057;50.988;6.314;2023-06-14T12:55:42;2.03;;;1.83;;
3949;SDS011;53057;50.988;6.314;2023-06-14T12:58:08;5.13;;;2.00;;
3949;SDS011;53057;50.988;6.314;2023-06-14T13:00:35;5.67;;;2.80;;
3949;SDS011;53057;50.988;6.314;2023-06-14T13:03:02;6.73;;;2.27;;
3949;SDS011;53057;50.988;6.314;2023-06-14T13:05:29;3.23;;;2.30;;
3949;SDS011;53057;50.988;6.314;2023-06-14T13:07:57;2.27;;;2.17;;
3949;SDS011;53057;50.988;6.314;2023-06-14T13:10:24;2.67;;;2.40;;
3949;SDS011;53057;50.988;6.314;2023-06-14T13:12:52;2.50;;;2.30;;
3949;SDS011;53057;50.988;6.314;2023-06-14T13:15:18;4.53;;;2.10;;
3949;SDS011;53057;50.988;6.314;2023-06-14T13:17:45;8.20;;;2.10;;
3949;SDS011;53057;50.988;6.314;2023-06-14T13:20:15;5.60;;;2.43;;
3949;SDS011;53057;50.988;6.314;2023-06-14T13:22:46;4.40;;;2.50;;
3949;SDS011;53057;50.988;6.314;2023-06-14T13:25:13;4.43;;;2.23;;
3949;SDS011;53057;50.988;6.314;2023-06-14T13:27:39;5.27;;;2.80;;
3949;SDS011;53057;50.988;6.314;2023-06-14T13:30:07;2.17;;;1.97;;
3949;SDS011;53057;50.988;6.314;2023-06-14T13:32:36;2.60;;;1.93;;
3949;SDS011;53057;50.988;6.314;2023-06-14T13:35:02;3.07;;;2.17;;
3949;SDS011;53057;50.988;6.314;2023-06-14T13:37:30;4.83;;;2.30;;
3949;SDS011;53057;50.988;6.314;2023-06-14T13:39:57;5.67;;;2.63;;
3949;SDS011;53057;50.988;6.314;2023-06-14T13:42:23;2.80;;;1.97;;
3949;SDS011;53057;50.988;6.314;2023-06-14T13:44:50;2.60;;;2.20;;
3949;SDS011;53057;50.988;6.314;2023-06-14T13:47:19;2.93;;;2.13;;
3949;SDS011;53057;50.988;6.314;2023-06-14T13:49:46;2.63;;;1.80;;
3949;SDS011;53057;50.988;6.314;2023-06-14T13:52:13;3.03;;;2.00;;
3949;SDS011;53057;50.988;6.314;2023-06-14T13:54:40;1.80;;;1.70;;
3949;SDS011;53057;50.988;6.314;2023-06-14T13:57:06;1.93;;;1.43;;
3949;SDS011;53057;50.988;6.314;2023-06-14T13:59:34;3.13;;;1.63;;
3949;SDS011;53057;50.988;6.314;2023-06-14T14:02:01;4.10;;;1.90;;
3949;SDS011;53057;50.988;6.314;2023-06-14T14:04:28;4.30;;;1.73;;
3949;SDS011;53057;50.988;6.314;2023-06-14T14:06:55;2.10;;;1.90;;
3949;SDS011;53057;50.988;6.314;2023-06-14T14:09:22;3.17;;;1.80;;
3949;SDS011;53057;50.988;6.314;2023-06-14T14:11:49;3.10;;;1.87;;
3949;SDS011;53057;50.988;6.314;2023-06-14T14:14:16;3.30;;;1.50;;
3949;SDS011;53057;50.988;6.314;2023-06-14T14:16:42;3.23;;;1.40;;
3949;SDS011;53057;50.988;6.314;2023-06-14T14:19:09;3.87;;;1.97;;
3949;SDS011;53057;50.988;6.314;2023-06-14T14:21:36;5.40;;;2.10;;
3949;SDS011;53057;50.988;6.314;2023-06-14T14:24:02;7.57;;;2.20;;
3949;SDS011;53057;50.988;6.314;2023-06-14T14:26:30;3.57;;;1.23;;
3949;SDS011;53057;50.988;6.314;2023-06-14T14:28:57;1.73;;;1.53;;
3949;SDS011;53057;50.988;6.314;2023-06-14T14:31:23;2.90;;;1.50;;
3949;SDS011;53057;50.988;6.314;2023-06-14T14:33:50;2.93;;;1.37;;
3949;SDS011;53057;50.988;6.314;2023-06-14T14:36:17;1.67;;;1.57;;
3949;SDS011;53057;50.988;6.314;2023-06-14T14:38:44;1.73;;;1.63;;
3949;SDS011;53057;50.988;6.314;2023-06-14T14:41:11;3.20;;;1.63;;
3949;SDS011;53057;50.988;6.314;2023-06-14T14:43:38;3.13;;;1.40;;
3949;SDS011;53057;50.988;6.314;2023-06-14T14:46:06;4.10;;;1.67;;
3949;SDS011;53057;50.988;6.314;2023-06-14T14:48:32;1.90;;;1.40;;
3949;SDS011;53057;50.988;6.314;2023-06-14T14:50:59;1.33;;;1.23;;
3949;SDS011;53057;50.988;6.314;2023-06-14T14:53:26;4.30;;;1.70;;
3949;SDS011;53057;50.988;6.314;2023-06-14T14:55:52;1.50;;;1.40;;
3949;SDS011;53057;50.988;6.314;2023-06-14T14:58:19;1.40;;;1.30;;
3949;SDS011;53057;50.988;6.314;2023-06-14T15:00:46;1.60;;;1.50;;
3949;SDS011;53057;50.988;6.314;2023-06-14T15:03:13;2.50;;;1.80;;
3949;SDS011;53057;50.988;6.314;2023-06-14T15:05:40;2.70;;;1.40;;
3949;SDS011;53057;50.988;6.314;2023-06-14T15:08:07;2.73;;;1.50;;
3949;SDS011;53057;50.988;6.314;2023-06-14T15:10:38;2.10;;;1.57;;